^^
Grace C. Lehan Memorial Weather Station Historical Data
Daily Summary for January 12, 2021 Units:  English    Metric   Both
Daily Weekly Monthly Yearly
  High: Low: Average:
Temperature: 73.2 °F 60.2 °F 65.1 °F
Dew Point: 61.9 °F 56.2 °F 58.6 °F
Humidity: 89.9% 65.3% 80%
Wind Speed: 1.2mph 0mph 0.1mph
Wind Gust: 7mph - -
Wind- - South
Pressure: 29.88 in 29.80 in -
Precipitation: 0.06 in    
 
 
Tabular Data for January 12, 2021
Time Temperature Dew Point Pressure Wind Wind Speed Wind Gust Humidity Rainfall Rate (Hourly) solar
00:04 63.8 °F 56.8 °F 29.88 in Calm     78% 0.00 in 0 W/m2
00:09 63.7 °F 56.8 °F 29.88 in Calm   1 mph 78% 0.00 in 0 W/m2
00:14 63.7 °F 56.7 °F 29.88 in Calm   1 mph 78% 0.00 in 0 W/m2
00:19 63.6 °F 56.9 °F 29.87 in Calm   1 mph 78.8% 0.00 in 0 W/m2
00:24 63.6 °F 57 °F 29.87 in Calm   1 mph 79% 0.00 in 0 W/m2
00:29 63.6 °F 57 °F 29.88 in Calm   1 mph 79% 0.00 in 0 W/m2
00:34 63.5 °F 56.9 °F 29.87 in Calm   1 mph 79% 0.00 in 0 W/m2
00:39 63.5 °F 56.9 °F 29.87 in Calm     79% 0.00 in 0 W/m2
00:44 63.5 °F 56.9 °F 29.86 in Calm     79% 0.00 in 0 W/m2
00:49 63.4 °F 56.8 °F 29.86 in Calm     79% 0.00 in 0 W/m2
00:54 63.4 °F 56.8 °F 29.86 in Calm     79% 0.00 in 0 W/m2
00:59 63.4 °F 56.8 °F 29.85 in Calm     79% 0.00 in 0 W/m2
01:04 63.3 °F 56.8 °F 29.85 in Calm     79.4% 0.00 in 0 W/m2
01:09 63.2 °F 57 °F 29.85 in Calm   1 mph 80% 0.00 in 0 W/m2
01:14 63.2 °F 56.9 °F 29.85 in Calm   1 mph 80% 0.00 in 0 W/m2
01:19 63.1 °F 56.9 °F 29.85 in Calm   1 mph 80% 0.00 in 0 W/m2
01:24 63.1 °F 56.9 °F 29.85 in Calm   1 mph 80% 0.00 in 0 W/m2
01:29 63.1 °F 56.8 °F 29.85 in Calm   1 mph 80% 0.00 in 0 W/m2
01:34 63 °F 57 °F 29.85 in Calm   1 mph 80.7% 0.00 in 0 W/m2
01:39 63 °F 57.1 °F 29.85 in Calm     81% 0.00 in 0 W/m2
01:44 63 °F 57.1 °F 29.85 in Calm     81% 0.00 in 0 W/m2
01:49 63 °F 57.1 °F 29.85 in Calm     81% 0.00 in 0 W/m2
01:54 63 °F 57.1 °F 29.85 in Calm     81% 0.00 in 0 W/m2
01:59 62.9 °F 57 °F 29.85 in Calm     81% 0.00 in 0 W/m2
02:04 62.9 °F 57 °F 29.84 in Calm     81% 0.00 in 0 W/m2
02:09 62.8 °F 56.9 °F 29.84 in Calm     81% 0.00 in 0 W/m2
02:14 62.8 °F 56.9 °F 29.84 in Calm     81% 0.00 in 0 W/m2
02:19 62.7 °F 57 °F 29.84 in Calm     81.7% 0.00 in 0 W/m2
02:24 62.7 °F 57.1 °F 29.85 in Calm     82% 0.00 in 0 W/m2
02:29 62.7 °F 57.1 °F 29.84 in Calm     82% 0.00 in 0 W/m2
02:34 62.7 °F 57.1 °F 29.84 in Calm     82% 0.00 in 0 W/m2
02:39 62.7 °F 57.1 °F 29.84 in Calm     82% 0.00 in 0 W/m2
02:44 62.7 °F 57.1 °F 29.84 in Calm     82% 0.00 in 0 W/m2
02:49 62.7 °F 57.1 °F 29.84 in Calm     82% 0.00 in 0 W/m2
02:54 62.6 °F 57 °F 29.84 in Calm     82% 0.00 in 0 W/m2
02:59 62.6 °F 57 °F 29.84 in Calm     82% 0.00 in 0 W/m2
03:04 62.5 °F 57 °F 29.83 in Calm     82% 0.00 in 0 W/m2
03:09 62.5 °F 57.1 °F 29.83 in Calm     82.5% 0.00 in 0 W/m2
03:14 62.5 °F 56.9 °F 29.83 in Calm     82% 0.00 in 0 W/m2
03:19 62.5 °F 57.2 °F 29.83 in Calm     82.8% 0.00 in 0 W/m2
03:24 62.5 °F 57 °F 29.83 in Calm     82.2% 0.00 in 0 W/m2
03:29 62.5 °F 56.9 °F 29.82 in Calm     82% 0.00 in 0 W/m2
03:34 62.5 °F 57.1 °F 29.82 in Calm     82.5% 0.00 in 0 W/m2
03:39 62.5 °F 57.3 °F 29.82 in Calm     83% 0.00 in 0 W/m2
03:44 62.5 °F 57.3 °F 29.82 in Calm     83% 0.00 in 0 W/m2
03:49 62.5 °F 57.3 °F 29.82 in Calm     83% 0.00 in 0 W/m2
03:54 62.5 °F 57.3 °F 29.81 in Calm     83% 0.00 in 0 W/m2
03:59 62.5 °F 57.2 °F 29.81 in Calm     83% 0.00 in 0 W/m2
04:04 62.5 °F 57.3 °F 29.82 in Calm     83% 0.00 in 0 W/m2
04:09 62.5 °F 57.3 °F 29.82 in Calm     83% 0.00 in 0 W/m2
04:14 62.5 °F 57.3 °F 29.82 in Calm     83% 0.00 in 0 W/m2
04:19 62.6 °F 57.4 °F 29.82 in Calm     83% 0.00 in 0 W/m2
04:24 62.6 °F 57.4 °F 29.82 in Calm     83% 0.00 in 0 W/m2
04:29 62.7 °F 57.5 °F 29.82 in Calm     83% 0.00 in 0 W/m2
04:34 62.7 °F 57.5 °F 29.81 in Calm     83% 0.00 in 0 W/m2
04:39 62.7 °F 57.5 °F 29.81 in Calm     83% 0.00 in 0 W/m2
04:44 62.7 °F 57.5 °F 29.81 in Calm     83% 0.00 in 0 W/m2
04:49 62.7 °F 57.4 °F 29.81 in Calm     83% 0.00 in 0 W/m2
04:54 62.7 °F 57.4 °F 29.81 in Calm     83% 0.00 in 0 W/m2
04:59 62.6 °F 57.4 °F 29.81 in Calm     83% 0.00 in 0 W/m2
05:04 62.6 °F 57.1 °F 29.82 in Calm     82.1% 0.00 in 0 W/m2
05:09 62.6 °F 57 °F 29.82 in Calm     82% 0.00 in 0 W/m2
05:14 62.6 °F 57 °F 29.82 in Calm     82% 0.00 in 0 W/m2
05:19 62.6 °F 57 °F 29.82 in Calm     82% 0.00 in 0 W/m2
05:24 62.6 °F 57.1 °F 29.82 in Calm     82% 0.00 in 0 W/m2
05:29 62.7 °F 57.1 °F 29.82 in Calm     82% 0.00 in 0 W/m2
05:34 62.7 °F 57.2 °F 29.83 in Calm     82% 0.00 in 0 W/m2
05:39 62.8 °F 57.2 °F 29.83 in South 0.2 mph 3 mph 82% 0.00 in 0 W/m2
05:44 62.8 °F 57.2 °F 29.83 in SSE 0.5 mph 4 mph 82% 0.00 in 0 W/m2
05:49 62.8 °F 57.3 °F 29.83 in Calm   4 mph 82.2% 0.00 in 0 W/m2
05:54 62.8 °F 57.4 °F 29.83 in SE 0.1 mph 4 mph 82.5% 0.00 in 0 W/m2
05:59 62.8 °F 57.4 °F 29.83 in SE 1.1 mph 4 mph 82.5% 0.00 in 0 W/m2
06:04 62.8 °F 57.3 °F 29.83 in East 1.2 mph 5 mph 82% 0.00 in 5 W/m2
06:09 62.8 °F 57.2 °F 29.84 in NE 1 mph 7 mph 82% 0.00 in 7 W/m2
06:14 62.8 °F 57.2 °F 29.84 in ENE 0.4 mph 7 mph 82% 0.00 in 7 W/m2
06:19 62.8 °F 57.2 °F 29.84 in NE 1.2 mph 7 mph 82% 0.00 in 7 W/m2
06:24 62.7 °F 57.2 °F 29.84 in ENE 0.4 mph 7 mph 82.3% 0.00 in 11 W/m2
06:29 62.7 °F 57.5 °F 29.84 in ENE 0.6 mph 7 mph 83% 0.00 in 14 W/m2
06:34 62.7 °F 57.6 °F 29.84 in ENE 0.1 mph 7 mph 83.6% 0.00 in 14 W/m2
06:39 62.6 °F 57.7 °F 29.84 in ENE 0.3 mph 3 mph 84% 0.00 in 16 W/m2
06:44 62.5 °F 57.9 °F 29.84 in ENE 0.1 mph 3 mph 84.9% 0.00 in 23 W/m2
06:49 62.5 °F 58.1 °F 29.84 in ENE 0.7 mph 5 mph 85.5% 0.00 in 33 W/m2
06:54 62.3 °F 58.1 °F 29.84 in ENE 0.3 mph 5 mph 86% 0.00 in 35 W/m2
06:59 62.3 °F 58.1 °F 29.84 in Calm   5 mph 86% 0.00 in 25 W/m2
07:04 62.3 °F 58 °F 29.84 in ENE 0.5 mph 5 mph 86% 0.01 in 18 W/m2
07:09 62.2 °F 58.3 °F 29.84 in Calm   4 mph 87% 0.01 in 33 W/m2
07:14 62.2 °F 58.5 °F 29.84 in ENE 0.3 mph 4 mph 87.8% 0.01 in 46 W/m2
07:19 62.2 °F 58.6 °F 29.84 in Calm   4 mph 88% 0.01 in 49 W/m2
07:24 62.3 °F 58.9 °F 29.84 in ENE 0.1 mph 4 mph 88.7% 0.01 in 51 W/m2
07:29 62.3 °F 59 °F 29.84 in Calm   4 mph 89% 0.01 in 42 W/m2
07:34 62.3 °F 59 °F 29.84 in Calm   4 mph 89% 0.01 in 25 W/m2
07:39 62.2 °F 59 °F 29.84 in Calm     89% 0.01 in 26 W/m2
07:44 62.2 °F 58.9 °F 29.84 in Calm     89% 0.01 in 25 W/m2
07:49 62 °F 58.7 °F 29.84 in ENE 0.1 mph 3 mph 88.7% 0.01 in 18 W/m2
07:54 61.9 °F 58.3 °F 29.85 in Calm   3 mph 88.1% 0.01 in 21 W/m2
07:59 61.8 °F 58.5 °F 29.85 in Calm   3 mph 89% 0.02 in 23 W/m2
08:00 61.8 °F 58.5 °F 29.85 in Calm   3 mph 89% 0.02 in 18 W/m2
08:09 61.9 °F 58.6 °F 29.85 in Calm     89% 0.04 in 33 W/m2
08:14 61.8 °F 58.5 °F 29.85 in Calm   1 mph 89% 0.04 in 54 W/m2
08:19 61.7 °F 58.4 °F 29.85 in Calm   1 mph 89% 0.04 in 42 W/m2
08:24 61.6 °F 58.5 °F 29.85 in Calm   1 mph 89.6% 0.04 in 30 W/m2
08:29 61.4 °F 58.2 °F 29.85 in Calm   1 mph 89.3% 0.04 in 39 W/m2
08:34 61.2 °F 58 °F 29.85 in Calm   1 mph 89% 0.04 in 76 W/m2
08:39 61.1 °F 57.8 °F 29.85 in Calm     89% 0.03 in 77 W/m2
08:44 61 °F 57.8 °F 29.85 in Calm     89.3% 0.03 in 67 W/m2
08:49 61 °F 58 °F 29.85 in Calm     89.9% 0.03 in 67 W/m2
08:54 60.8 °F 57.5 °F 29.86 in Calm     88.7% 0.04 in 69 W/m2
08:59 60.5 °F 57 °F 29.86 in Calm     88% 0.04 in 69 W/m2
09:04 60.4 °F 56.8 °F 29.86 in Calm     88% 0.04 in 33 W/m2
09:09 60.3 °F 56.4 °F 29.86 in Calm     87% 0.03 in 37 W/m2
09:14 60.2 °F 56.4 °F 29.86 in Calm     87.2% 0.03 in 53 W/m2
09:19 60.2 °F 56.6 °F 29.86 in Calm     88% 0.04 in 63 W/m2
09:24 60.3 °F 56.7 °F 29.86 in Calm     88% 0.04 in 127 W/m2
09:29 60.3 °F 57.1 °F 29.86 in Calm     88.9% 0.04 in 146 W/m2
09:34 60.3 °F 57.1 °F 29.86 in Calm     89% 0.04 in 128 W/m2
09:39 60.4 °F 57.1 °F 29.85 in Calm     89% 0.02 in 125 W/m2
09:44 60.4 °F 57.2 °F 29.86 in Calm     89% 0.02 in 116 W/m2
09:49 60.5 °F 57.2 °F 29.86 in Calm     89% 0.02 in 97 W/m2
09:54 60.4 °F 56.8 °F 29.86 in Calm     88% 0.02 in 88 W/m2
09:59 60.3 °F 56.6 °F 29.85 in Calm     87.7% 0.02 in 83 W/m2
10:04 60.2 °F 56.4 °F 29.85 in Calm     87.2% 0.02 in 86 W/m2
10:09 60.2 °F 56.2 °F 29.86 in Calm     86.8% 0.01 in 111 W/m2
10:14 60.2 °F 56.2 °F 29.86 in Calm     86.7% 0.01 in 135 W/m2
10:19 60.3 °F 56.5 °F 29.86 in Calm     87% 0.01 in 130 W/m2
10:24 60.5 °F 56.6 °F 29.86 in Calm     87% 0.01 in 167 W/m2
10:29 60.7 °F 57.1 °F 29.85 in Calm     87.7% 0.01 in 206 W/m2
10:34 61.1 °F 57.6 °F 29.85 in Calm     88% 0.01 in 251 W/m2
10:39 61.5 °F 57.5 °F 29.85 in Calm     86.8% 0.00 in 260 W/m2
10:44 61.8 °F 57.4 °F 29.85 in Calm     85.5% 0.00 in 420 W/m2
10:49 62.3 °F 57.9 °F 29.85 in Calm     85.6% 0.00 in 598 W/m2
10:54 62.9 °F 58.2 °F 29.85 in Calm     84.8% 0.00 in 575 W/m2
10:59 63.6 °F 59 °F 29.85 in ENE 0.1 mph 2 mph 84.9% 0.00 in 512 W/m2
11:04 64.2 °F 59.1 °F 29.85 in Calm   2 mph 83.6% 0.00 in 383 W/m2
11:09 64.5 °F 58.7 °F 29.85 in Calm     81.7% 0.00 in 369 W/m2
11:14 64.8 °F 59.2 °F 29.85 in Calm     82% 0.00 in 369 W/m2
11:19 65.1 °F 59.1 °F 29.85 in Calm     81% 0.00 in 376 W/m2
11:24 65.4 °F 59.3 °F 29.85 in Calm   1 mph 80.6% 0.00 in 439 W/m2
11:29 65.5 °F 58.4 °F 29.85 in Calm   1 mph 78% 0.00 in 710 W/m2
11:34 65.9 °F 59.7 °F 29.85 in Calm   1 mph 80.4% 0.00 in 710 W/m2
11:39 66.4 °F 59.4 °F 29.85 in Calm     78.2% 0.00 in 895 W/m2
11:44 66.6 °F 59 °F 29.85 in ENE 0.3 mph 2 mph 76.4% 0.00 in 895 W/m2
11:49 66.6 °F 58.7 °F 29.85 in Calm   2 mph 75.9% 0.00 in 529 W/m2
11:54 66.5 °F 59.1 °F 29.85 in NE 0.5 mph 5 mph 76.9% 0.00 in 353 W/m2
11:59 66.8 °F 59.5 °F 29.85 in West 0.6 mph 5 mph 77.5% 0.00 in 281 W/m2
12:00 66.9 °F 59.5 °F 29.85 in Calm   5 mph 77% 0.00 in 281 W/m2
12:09 67.2 °F 59.4 °F 29.85 in Calm     76% 0.00 in 220 W/m2
12:14 67.3 °F 59.2 °F 29.85 in Calm     75.2% 0.00 in 167 W/m2
12:19 67.2 °F 58.6 °F 29.85 in Calm     73.7% 0.00 in 169 W/m2
12:24 67.1 °F 58.5 °F 29.85 in Calm     73.9% 0.00 in 158 W/m2
12:29 66.9 °F 58.7 °F 29.85 in Calm     74.9% 0.00 in 121 W/m2
12:34 66.9 °F 59.6 °F 29.85 in Calm     77.2% 0.00 in 113 W/m2
12:39 67 °F 59.3 °F 29.85 in Calm     76.4% 0.00 in 98 W/m2
12:44 66.9 °F 59.3 °F 29.85 in Calm     76.5% 0.00 in 114 W/m2
12:49 66.9 °F 59.1 °F 29.85 in Calm     76% 0.00 in 128 W/m2
12:54 66.9 °F 59.6 °F 29.85 in Calm   1 mph 77.2% 0.00 in 127 W/m2
12:59 67.1 °F 60 °F 29.85 in West 0.2 mph 3 mph 78.2% 0.00 in 156 W/m2
13:04 67 °F 59.8 °F 29.85 in Calm   3 mph 77.5% 0.00 in 190 W/m2
13:09 66.9 °F 59.9 °F 29.85 in Calm   2 mph 78.1% 0.00 in 257 W/m2
13:14 67 °F 60.5 °F 29.85 in Calm   2 mph 79.6% 0.00 in 315 W/m2
13:19 67.4 °F 60.9 °F 29.85 in West 0.1 mph 2 mph 79.5% 0.00 in 329 W/m2
13:24 68 °F 61.4 °F 29.85 in Calm   2 mph 79.7% 0.00 in 338 W/m2
13:29 68.3 °F 60.9 °F 29.85 in West 0.7 mph 3 mph 77.3% 0.00 in 359 W/m2
13:34 68.6 °F 61.1 °F 29.85 in Calm   3 mph 77.1% 0.00 in 364 W/m2
13:39 68.8 °F 60.8 °F 29.85 in West 0.5 mph 4 mph 75.8% 0.00 in 367 W/m2
13:44 68.9 °F 61 °F 29.85 in Calm   4 mph 75.8% 0.00 in 390 W/m2
13:49 69 °F 61 °F 29.85 in West 0.2 mph 4 mph 75.8% 0.00 in 360 W/m2
13:54 69.2 °F 61.3 °F 29.85 in Calm   4 mph 75.9% 0.00 in 367 W/m2
13:59 69.5 °F 61.6 °F 29.85 in Calm   4 mph 75.9% 0.00 in 339 W/m2
14:04 69.8 °F 61.8 °F 29.85 in Calm   4 mph 75.6% 0.00 in 315 W/m2
14:09 70.1 °F 61.2 °F 29.84 in Calm   1 mph 73.4% 0.00 in 299 W/m2
14:14 70.1 °F 60.6 °F 29.84 in Calm   1 mph 71.9% 0.00 in 274 W/m2
14:19 70.1 °F 61.1 °F 29.84 in West 0.1 mph 3 mph 73% 0.00 in 241 W/m2
14:24 70.1 °F 61 °F 29.84 in West 0.7 mph 5 mph 72.8% 0.00 in 188 W/m2
14:29 70.1 °F 60.9 °F 29.84 in West 0.1 mph 5 mph 72.8% 0.00 in 155 W/m2
14:34 70 °F 60.8 °F 29.84 in West 0.1 mph 5 mph 72.4% 0.00 in 141 W/m2
14:39 69.9 °F 60.6 °F 29.84 in Calm   2 mph 72.2% 0.00 in 142 W/m2
14:44 69.7 °F 60.5 °F 29.84 in West 0.4 mph 3 mph 72.8% 0.00 in 167 W/m2
14:49 69.5 °F 61 °F 29.84 in Calm   3 mph 74.4% 0.00 in 234 W/m2
14:54 69.5 °F 60.9 °F 29.84 in Calm   3 mph 74% 0.00 in 422 W/m2
14:57 69.6 °F 61 °F 29.84 in Calm   3 mph 74% 0.00 in 605 W/m2
15:00 69.8 °F 61.5 °F 29.83 in Calm   4 mph 75% 0.00 in 226 W/m2
15:30 72.6 °F 61.9 °F 29.83 in Calm   6 mph 69% 0.00 in 778 W/m2
16:04 72.4 °F 60.5 °F 29.83 in Calm   6 mph 66.2% 0.00 in 778 W/m2
16:09 72.3 °F 60.7 °F 29.83 in West 0.3 mph 5 mph 66.8% 0.00 in 754 W/m2
16:14 72.3 °F 61.2 °F 29.83 in West 0.3 mph 5 mph 68.2% 0.00 in 754 W/m2
16:19 72.2 °F 61.1 °F 29.83 in West 0.1 mph 5 mph 68.1% 0.00 in 179 W/m2
16:24 72.1 °F 61.5 °F 29.83 in West 0.1 mph 5 mph 69.2% 0.00 in 169 W/m2
16:29 72.1 °F 61.5 °F 29.83 in West 0.1 mph 5 mph 69.3% 0.00 in 148 W/m2
16:34 72.3 °F 61.7 °F 29.83 in Calm   5 mph 69.5% 0.00 in 127 W/m2
16:39 72.6 °F 61.8 °F 29.82 in West 0.3 mph 3 mph 68.9% 0.00 in 135 W/m2
16:44 72.9 °F 61.4 °F 29.82 in West 0.1 mph 3 mph 67.1% 0.00 in 102 W/m2
16:49 73 °F 61.5 °F 29.82 in West 0.3 mph 3 mph 67.2% 0.00 in 84 W/m2
16:54 73.1 °F 61.4 °F 29.82 in WSW 0.7 mph 7 mph 66.7% 0.00 in 70 W/m2
16:59 73.2 °F 61.6 °F 29.81 in Calm   7 mph 66.9% 0.00 in 58 W/m2
17:04 73.2 °F 61 °F 29.81 in Calm   7 mph 65.6% 0.00 in 54 W/m2
17:09 73 °F 60.7 °F 29.81 in WSW 0.1 mph 2 mph 65.4% 0.00 in 51 W/m2
17:14 72.9 °F 60.7 °F 29.81 in Calm   2 mph 65.5% 0.00 in 46 W/m2
17:19 72.6 °F 60.3 °F 29.81 in WSW 0.5 mph 6 mph 65.3% 0.00 in 44 W/m2
17:24 72.5 °F 60.5 °F 29.81 in WSW 0.2 mph 6 mph 66% 0.00 in 42 W/m2
17:29 72.4 °F 60.5 °F 29.81 in WSW 0.3 mph 6 mph 66.1% 0.00 in 42 W/m2
17:34 72.4 °F 60.6 °F 29.81 in WSW 0.1 mph 6 mph 66.4% 0.00 in 42 W/m2
17:39 72.4 °F 60.4 °F 29.81 in Calm   1 mph 66% 0.00 in 42 W/m2
17:44 72.4 °F 60.6 °F 29.81 in Calm   1 mph 66.3% 0.00 in 44 W/m2
17:49 72.5 °F 61 °F 29.81 in WSW 0.2 mph 5 mph 67.2% 0.00 in 42 W/m2
17:54 72.4 °F 60.3 °F 29.81 in Calm   5 mph 65.6% 0.00 in 40 W/m2
17:55 72.4 °F 60.4 °F 29.80 in Calm   5 mph 66% 0.00 in 39 W/m2
18:30 72.8 °F 60.8 °F 29.81 in Calm   2 mph 66% 0.00 in 34 W/m2
19:00 72.6 °F 61 °F 29.82 in Calm   4 mph 67% 0.00 in 31 W/m2
19:30 71.8 °F 61.5 °F 29.81 in Calm   5 mph 70% 0.00 in 25 W/m2
20:04 70.2 °F 61.4 °F 29.81 in Calm     73.6% 0.00 in 11 W/m2
20:09 70 °F 61.4 °F 29.81 in Calm     74% 0.00 in 9 W/m2
20:14 69.8 °F 61.3 °F 29.81 in WSW 0.1 mph 2 mph 74.2% 0.00 in 5 W/m2
20:19 69.5 °F 61.3 °F 29.81 in Calm   2 mph 75% 0.00 in 5 W/m2
20:24 69.3 °F 61 °F 29.81 in WSW 0.2 mph 5 mph 75% 0.00 in 0 W/m2
20:29 68.9 °F 60.9 °F 29.81 in WSW 0.1 mph 5 mph 75.6% 0.00 in 0 W/m2
20:34 68.6 °F 60.8 °F 29.81 in Calm   5 mph 76% 0.00 in 0 W/m2
20:39 68.3 °F 60.7 °F 29.82 in Calm     76.7% 0.00 in 0 W/m2
20:43 68.1 °F 60.6 °F 29.82 in Calm     77% 0.00 in 0 W/m2
Hartford County Weather
Compliments of Weather Underground - 2 mb